createdAt,value
2018-03-19T00:00:52.066Z,5.97
2018-03-19T00:03:20.412Z,10.30
2018-03-19T00:05:48.836Z,9.57
2018-03-19T00:08:17.163Z,8.37
2018-03-19T00:10:45.516Z,8.47
2018-03-19T00:13:13.859Z,9.20
2018-03-19T00:15:42.199Z,5.27
2018-03-19T00:18:10.546Z,7.17
2018-03-19T00:20:38.892Z,7.33
2018-03-19T00:23:07.268Z,8.67
2018-03-19T00:25:35.616Z,8.93
2018-03-19T00:28:03.941Z,8.30
2018-03-19T00:30:32.301Z,8.40
2018-03-19T00:33:00.631Z,7.60
2018-03-19T00:35:29.035Z,12.60
2018-03-19T00:37:57.386Z,6.87
2018-03-19T00:40:25.724Z,7.10
2018-03-19T00:42:54.063Z,8.70
2018-03-19T00:45:22.399Z,8.53
2018-03-19T00:47:50.760Z,9.73
2018-03-19T00:50:19.132Z,8.93
2018-03-19T00:52:47.496Z,6.97
2018-03-19T00:55:15.879Z,7.57
2018-03-19T00:57:44.200Z,6.37
2018-03-19T01:00:13.284Z,8.37
2018-03-19T01:02:41.697Z,8.80
2018-03-19T01:05:10.028Z,9.10
2018-03-19T01:07:38.376Z,10.97
2018-03-19T01:10:06.739Z,7.73
2018-03-19T01:12:35.085Z,10.70
2018-03-19T01:15:03.421Z,9.90
2018-03-19T01:17:31.780Z,8.13
2018-03-19T01:20:00.129Z,6.93
2018-03-19T01:22:28.476Z,8.50
2018-03-19T01:24:56.807Z,9.70
2018-03-19T01:27:25.194Z,9.30
2018-03-19T01:29:53.549Z,9.63
2018-03-19T01:32:21.886Z,8.67
2018-03-19T01:34:50.259Z,10.67
2018-03-19T01:37:18.611Z,7.33
2018-03-19T01:39:47.022Z,8.13
2018-03-19T01:42:15.444Z,9.13
2018-03-19T01:44:43.781Z,8.40
2018-03-19T01:47:12.139Z,7.60
2018-03-19T01:49:40.476Z,8.10
2018-03-19T01:52:08.825Z,10.53
2018-03-19T01:54:37.171Z,9.60
2018-03-19T01:57:05.537Z,9.93
2018-03-19T01:59:33.920Z,10.43
2018-03-19T02:02:02.326Z,8.17
2018-03-19T02:04:30.664Z,6.37
2018-03-19T02:06:59.048Z,9.23
2018-03-19T02:09:27.389Z,11.50
2018-03-19T02:11:55.730Z,8.10
2018-03-19T02:14:24.066Z,6.83
2018-03-19T02:16:52.477Z,7.43
2018-03-19T02:19:20.827Z,8.27
2018-03-19T02:21:49.169Z,7.77
2018-03-19T02:24:17.520Z,8.43
2018-03-19T02:26:45.929Z,8.20
2018-03-19T02:29:14.260Z,7.67
2018-03-19T02:31:42.749Z,8.97
2018-03-19T02:34:11.114Z,7.77
2018-03-19T02:36:39.481Z,9.90
2018-03-19T02:39:07.805Z,8.90
2018-03-19T02:41:36.188Z,10.07
2018-03-19T02:44:04.540Z,6.97
2018-03-19T02:46:32.890Z,7.63
2018-03-19T02:49:01.230Z,9.00
2018-03-19T02:51:29.590Z,8.63
2018-03-19T02:53:57.919Z,7.70
2018-03-19T02:56:26.252Z,8.07
2018-03-19T02:58:54.604Z,8.47
2018-03-19T03:01:23.101Z,9.87
2018-03-19T03:03:51.440Z,8.50
2018-03-19T03:06:19.788Z,11.47
2018-03-19T03:08:48.119Z,9.90
2018-03-19T03:11:16.474Z,12.67
2018-03-19T03:13:44.814Z,7.63
2018-03-19T03:16:13.199Z,9.73
2018-03-19T03:18:41.532Z,7.53
2018-03-19T03:21:09.875Z,8.07
2018-03-19T03:23:38.347Z,6.70
2018-03-19T03:26:06.701Z,7.33
2018-03-19T03:28:35.032Z,7.67
2018-03-19T03:31:03.366Z,7.73
2018-03-19T03:33:31.742Z,7.70
2018-03-19T03:36:00.215Z,7.67
2018-03-19T03:38:28.559Z,9.50
2018-03-19T03:40:57.057Z,8.10
2018-03-19T03:43:25.401Z,9.77
2018-03-19T03:45:53.723Z,9.70
2018-03-19T03:48:22.077Z,8.30
2018-03-19T03:50:50.421Z,6.63
2018-03-19T03:53:18.764Z,8.77
2018-03-19T03:55:47.110Z,8.73
2018-03-19T03:58:16.108Z,9.47
2018-03-19T04:00:44.470Z,8.80
2018-03-19T04:03:12.825Z,7.70
2018-03-19T04:05:41.164Z,8.83
2018-03-19T04:08:09.533Z,8.33
2018-03-19T04:10:37.855Z,9.10
2018-03-19T04:13:06.233Z,7.07
2018-03-19T04:15:34.627Z,9.70
2018-03-19T04:18:02.981Z,11.80
2018-03-19T04:20:31.337Z,9.80
2018-03-19T04:22:59.681Z,10.90
2018-03-19T04:25:28.067Z,8.80
2018-03-19T04:27:56.428Z,11.40
2018-03-19T04:30:24.758Z,7.27
2018-03-19T04:32:53.095Z,8.77
2018-03-19T04:35:21.440Z,8.47
2018-03-19T04:37:49.783Z,9.90
2018-03-19T04:40:18.134Z,13.27
2018-03-19T04:42:46.509Z,11.93
2018-03-19T04:45:14.847Z,9.80
2018-03-19T04:47:43.189Z,9.07
2018-03-19T04:50:11.528Z,8.13
2018-03-19T04:52:39.887Z,9.33
2018-03-19T04:55:08.304Z,11.97
2018-03-19T04:57:36.660Z,10.97
2018-03-19T05:00:06.148Z,10.37
2018-03-19T05:02:34.948Z,9.47
2018-03-19T05:05:03.288Z,11.50
2018-03-19T05:07:31.637Z,13.60
2018-03-19T05:09:59.983Z,14.60
2018-03-19T05:12:28.496Z,12.17
2018-03-19T05:14:56.849Z,15.97
2018-03-19T05:17:25.192Z,16.30
2018-03-19T05:19:53.689Z,10.60
2018-03-19T05:22:22.129Z,11.17
2018-03-19T05:24:50.654Z,10.53
2018-03-19T05:27:18.992Z,8.33
2018-03-19T05:29:47.348Z,10.03
2018-03-19T05:32:15.784Z,8.93
2018-03-19T05:34:44.227Z,12.00
2018-03-19T05:37:12.570Z,12.97
2018-03-19T05:39:40.900Z,9.63
2018-03-19T05:42:09.244Z,10.40
2018-03-19T05:44:37.579Z,10.37
2018-03-19T05:47:06.456Z,11.10
2018-03-19T05:49:34.796Z,9.73
2018-03-19T05:52:03.134Z,10.00
2018-03-19T05:54:31.489Z,11.47
2018-03-19T05:56:59.829Z,11.03
2018-03-19T05:59:28.181Z,10.70
2018-03-19T06:01:57.384Z,11.40
2018-03-19T06:04:25.719Z,11.50
2018-03-19T06:06:54.053Z,9.63
2018-03-19T06:09:22.412Z,14.77
2018-03-19T06:11:50.752Z,9.13
2018-03-19T06:14:19.636Z,11.57
2018-03-19T06:16:48.650Z,10.83
2018-03-19T06:19:17.308Z,11.03
2018-03-19T06:21:45.732Z,10.57
2018-03-19T06:24:14.109Z,9.50
2018-03-19T06:26:42.588Z,13.60
2018-03-19T06:29:10.934Z,8.13
2018-03-19T06:31:39.271Z,11.80
2018-03-19T06:34:07.610Z,12.43
2018-03-19T06:36:35.959Z,10.20
2018-03-19T06:39:04.465Z,10.03
2018-03-19T06:41:32.809Z,13.63
2018-03-19T06:44:01.163Z,8.47
2018-03-19T06:46:29.511Z,11.57
2018-03-19T06:48:57.850Z,9.23
2018-03-19T06:51:26.187Z,12.10
2018-03-19T06:53:54.574Z,13.77
2018-03-19T06:56:22.930Z,10.77
2018-03-19T06:58:51.504Z,10.53
2018-03-19T07:01:21.304Z,13.30
2018-03-19T07:03:49.661Z,10.50
2018-03-19T07:06:18.063Z,9.57
2018-03-19T07:08:46.409Z,11.37
2018-03-19T07:11:14.977Z,14.40
2018-03-19T07:13:43.300Z,12.90
2018-03-19T07:16:11.647Z,13.20
2018-03-19T07:18:39.988Z,10.43
2018-03-19T07:21:08.359Z,11.43
2018-03-19T07:23:36.683Z,11.90
2018-03-19T07:26:05.056Z,12.40
2018-03-19T07:28:33.656Z,12.57
2018-03-19T07:31:02.029Z,10.53
2018-03-19T07:33:30.371Z,11.53
2018-03-19T07:35:58.720Z,9.77
2018-03-19T07:38:27.300Z,11.67
2018-03-19T07:40:55.655Z,10.00
2018-03-19T07:43:24.008Z,14.77
2018-03-19T07:45:52.349Z,9.17
2018-03-19T07:48:20.707Z,13.70
2018-03-19T07:50:49.071Z,12.57
2018-03-19T07:53:17.418Z,8.07
2018-03-19T07:55:45.771Z,9.83
2018-03-19T07:58:14.101Z,12.63
2018-03-19T08:00:42.464Z,13.57
2018-03-19T08:03:10.798Z,10.73
2018-03-19T08:05:39.151Z,15.07
2018-03-19T08:08:07.500Z,18.90
2018-03-19T08:10:36.019Z,10.60
2018-03-19T08:13:04.363Z,8.77
2018-03-19T08:15:32.881Z,10.13
2018-03-19T08:18:01.224Z,12.60
2018-03-19T08:20:29.620Z,11.13
2018-03-19T08:23:00.660Z,10.87
2018-03-19T08:25:29.004Z,8.43
2018-03-19T08:27:57.342Z,9.87
2018-03-19T08:30:25.689Z,11.23
2018-03-19T08:32:54.063Z,8.60
2018-03-19T08:35:22.402Z,9.67
2018-03-19T08:37:50.730Z,11.83
2018-03-19T08:40:19.088Z,8.80
2018-03-19T08:42:47.433Z,11.63
2018-03-19T08:45:15.956Z,14.30
2018-03-19T08:47:44.396Z,10.70
2018-03-19T08:50:12.780Z,9.77
2018-03-19T08:52:41.151Z,10.50
2018-03-19T08:55:09.488Z,9.17
2018-03-19T08:57:37.837Z,9.93
2018-03-19T09:00:06.178Z,11.57
2018-03-19T09:02:34.527Z,12.10
2018-03-19T09:05:02.860Z,9.33
2018-03-19T09:07:31.250Z,10.03
2018-03-19T09:09:59.622Z,13.50
2018-03-19T09:12:27.931Z,13.03
2018-03-19T09:14:56.288Z,11.33
2018-03-19T09:17:24.624Z,12.70
2018-03-19T09:19:53.080Z,10.23
2018-03-19T09:22:21.420Z,9.40
2018-03-19T09:24:49.776Z,9.97
2018-03-19T09:27:18.239Z,13.60
2018-03-19T09:29:46.652Z,19.03
2018-03-19T09:32:14.987Z,10.87
2018-03-19T09:34:43.328Z,8.53
2018-03-19T09:37:11.741Z,10.63
2018-03-19T09:39:40.154Z,11.53
2018-03-19T09:42:08.569Z,8.77
2018-03-19T09:44:37.085Z,10.07
2018-03-19T09:47:05.581Z,10.23
2018-03-19T09:49:34.017Z,20.13
2018-03-19T09:52:02.348Z,14.57
2018-03-19T09:54:30.684Z,11.47
2018-03-19T09:56:59.062Z,11.67
2018-03-19T09:59:27.424Z,10.83
2018-03-19T10:01:55.820Z,7.37
2018-03-19T10:04:24.167Z,10.87
2018-03-19T10:06:52.852Z,10.17
2018-03-19T10:09:21.183Z,7.50
2018-03-19T10:11:49.529Z,7.50
2018-03-19T10:14:17.864Z,8.67
2018-03-19T10:16:46.213Z,9.90
2018-03-19T10:19:14.555Z,12.40
2018-03-19T10:21:42.911Z,9.87
2018-03-19T10:24:11.824Z,9.77
2018-03-19T10:26:40.755Z,7.23
2018-03-19T10:29:09.080Z,7.70
2018-03-19T10:31:37.450Z,7.50
2018-03-19T10:34:05.782Z,9.67
2018-03-19T10:36:34.167Z,7.90
2018-03-19T10:39:03.080Z,6.40
2018-03-19T10:41:31.421Z,8.70
2018-03-19T10:43:59.772Z,8.10
2018-03-19T10:46:28.136Z,7.57
2018-03-19T10:48:57.081Z,14.30
2018-03-19T10:51:25.560Z,10.43
2018-03-19T10:53:53.898Z,8.50
2018-03-19T10:56:22.283Z,6.87
2018-03-19T10:58:50.595Z,6.00
2018-03-19T11:01:24.524Z,6.50
2018-03-19T11:03:58.506Z,9.70
2018-03-19T11:06:32.890Z,8.20
2018-03-19T11:09:07.596Z,6.37
2018-03-19T11:11:35.953Z,5.80
2018-03-19T11:14:04.355Z,8.37
2018-03-19T11:16:32.669Z,7.07
2018-03-19T11:19:01.063Z,6.37
2018-03-19T11:21:29.384Z,7.37
2018-03-19T11:23:57.948Z,8.33
2018-03-19T11:26:26.285Z,7.50
2018-03-19T11:28:54.632Z,6.03
2018-03-19T11:31:23.110Z,7.07
2018-03-19T11:33:51.397Z,7.70
2018-03-19T11:36:19.801Z,7.53
2018-03-19T11:38:48.149Z,6.77
2018-03-19T11:41:16.492Z,8.07
2018-03-19T11:43:44.901Z,9.10
2018-03-19T11:46:13.416Z,6.83
2018-03-19T11:48:41.747Z,9.27
2018-03-19T11:51:10.091Z,8.70
2018-03-19T11:53:39.045Z,8.90
2018-03-19T11:56:07.430Z,9.43
2018-03-19T11:58:35.784Z,6.50
2018-03-19T12:01:04.129Z,7.17
2018-03-19T12:03:32.702Z,8.63
2018-03-19T12:06:01.032Z,6.87
2018-03-19T12:08:29.585Z,7.83
2018-03-19T12:10:57.929Z,6.93
2018-03-19T12:13:26.500Z,7.17
2018-03-19T12:15:54.908Z,7.23
2018-03-19T12:18:23.475Z,7.37
2018-03-19T12:20:51.864Z,7.37
2018-03-19T12:23:20.187Z,5.47
2018-03-19T12:25:48.660Z,5.80
2018-03-19T12:28:17.025Z,6.03
2018-03-19T12:30:45.452Z,7.33
2018-03-19T12:33:14.018Z,7.17
2018-03-19T12:35:42.377Z,7.27
2018-03-19T12:38:10.972Z,6.07
2018-03-19T12:40:39.541Z,6.20
2018-03-19T12:43:08.368Z,5.27
2018-03-19T12:45:36.809Z,6.63
2018-03-19T12:48:05.348Z,5.37
2018-03-19T12:50:33.757Z,7.20
2018-03-19T12:53:02.271Z,5.83
2018-03-19T12:55:30.688Z,7.73
2018-03-19T12:57:59.161Z,7.70
2018-03-19T13:00:27.489Z,6.17
2018-03-19T13:02:55.940Z,6.63
2018-03-19T13:05:24.320Z,5.77
2018-03-19T13:07:52.717Z,6.90
2018-03-19T13:10:21.143Z,5.30
2018-03-19T13:12:49.579Z,5.37
2018-03-19T13:15:17.965Z,5.23
2018-03-19T13:17:46.456Z,4.30
2018-03-19T13:20:14.759Z,9.10
2018-03-19T13:22:43.104Z,6.87
2018-03-19T13:25:11.598Z,5.43
2018-03-19T13:27:39.954Z,5.07
2018-03-19T13:30:08.535Z,6.35
2018-03-19T13:32:38.302Z,5.35
2018-03-19T13:35:06.620Z,5.25
2018-03-19T13:37:34.969Z,7.55
2018-03-19T13:40:03.317Z,7.47
2018-03-19T13:42:31.654Z,3.95
2018-03-19T13:45:00.482Z,5.25
2018-03-19T13:47:29.103Z,4.78
2018-03-19T13:49:58.102Z,3.92
2018-03-19T13:52:27.319Z,5.05
2018-03-19T13:54:55.678Z,3.40
2018-03-19T13:57:24.017Z,6.37
2018-03-19T13:59:52.408Z,4.65
2018-03-19T14:02:20.892Z,4.00
2018-03-19T14:04:49.284Z,4.90
2018-03-19T14:07:17.643Z,4.68
2018-03-19T14:09:45.980Z,5.10
2018-03-19T14:12:14.311Z,4.97
2018-03-19T14:14:42.662Z,4.62
2018-03-19T14:17:11.068Z,5.62
2018-03-19T14:19:39.393Z,5.40
2018-03-19T14:22:07.708Z,6.70
2018-03-19T14:24:36.068Z,5.35
2018-03-19T14:27:04.401Z,3.10
2018-03-19T14:29:32.759Z,5.20
2018-03-19T14:32:01.172Z,5.62
2018-03-19T14:34:29.513Z,4.90
2018-03-19T14:36:57.860Z,5.12
2018-03-19T14:39:26.215Z,6.12
2018-03-19T14:41:54.563Z,10.45
2018-03-19T14:44:22.887Z,5.55
2018-03-19T14:46:51.252Z,5.25
2018-03-19T14:49:19.595Z,4.80
2018-03-19T14:51:47.937Z,6.70
2018-03-19T14:54:16.335Z,5.72
2018-03-19T14:56:44.681Z,4.37
2018-03-19T14:59:13.040Z,4.75
2018-03-19T15:01:41.386Z,4.57
2018-03-19T15:04:09.801Z,4.60
2018-03-19T15:06:38.167Z,4.95
2018-03-19T15:09:06.521Z,4.55
2018-03-19T15:11:35.208Z,6.37
2018-03-19T15:14:03.665Z,5.78
2018-03-19T15:16:32.130Z,5.15
2018-03-19T15:19:00.474Z,5.00
2018-03-19T15:21:28.846Z,7.60
2018-03-19T15:23:57.193Z,4.60
2018-03-19T15:26:25.556Z,4.70
2018-03-19T15:28:53.916Z,5.55
2018-03-19T15:31:22.309Z,5.15
2018-03-19T15:33:50.621Z,5.03
2018-03-19T15:36:19.080Z,5.62
2018-03-19T15:38:47.409Z,5.82
2018-03-19T15:41:15.746Z,5.57
2018-03-19T15:43:44.103Z,5.65
2018-03-19T15:46:12.447Z,5.80
2018-03-19T15:48:40.795Z,5.03
2018-03-19T15:51:09.442Z,5.35
2018-03-19T15:53:37.977Z,5.53
2018-03-19T15:56:06.325Z,5.05
2018-03-19T15:58:34.672Z,5.15
2018-03-19T16:01:03.025Z,5.50
2018-03-19T16:03:31.370Z,5.32
2018-03-19T16:05:59.832Z,4.53
2018-03-19T16:08:28.180Z,15.43
2018-03-19T16:10:56.576Z,6.25
2018-03-19T16:13:24.964Z,5.30
2018-03-19T16:15:53.855Z,6.35
2018-03-19T16:18:22.195Z,4.78
2018-03-19T16:20:50.539Z,5.65
2018-03-19T16:23:18.875Z,4.53
2018-03-19T16:25:47.237Z,4.12
2018-03-19T16:28:15.572Z,5.47
2018-03-19T16:30:43.926Z,5.70
2018-03-19T16:33:12.334Z,6.43
2018-03-19T16:35:40.666Z,7.87
2018-03-19T16:38:09.024Z,5.30
2018-03-19T16:40:37.376Z,4.73
2018-03-19T16:43:05.825Z,5.53
2018-03-19T16:45:34.199Z,5.40
2018-03-19T16:48:02.532Z,5.23
2018-03-19T16:50:30.876Z,8.20
2018-03-19T16:52:59.222Z,6.70
2018-03-19T16:55:27.566Z,5.80
2018-03-19T16:57:55.937Z,5.63
2018-03-19T17:00:24.283Z,7.13
2018-03-19T17:02:52.617Z,5.87
2018-03-19T17:05:21.037Z,5.83
2018-03-19T17:07:49.386Z,7.43
2018-03-19T17:10:17.769Z,5.63
2018-03-19T17:12:46.149Z,6.23
2018-03-19T17:15:14.449Z,5.30
2018-03-19T17:17:42.792Z,5.53
2018-03-19T17:20:11.181Z,8.13
2018-03-19T17:22:39.526Z,6.17
2018-03-19T17:25:07.984Z,6.63
2018-03-19T17:27:36.310Z,7.73
2018-03-19T17:30:04.690Z,7.87
2018-03-19T17:32:33.042Z,9.00
2018-03-19T17:35:01.386Z,7.67
2018-03-19T17:37:29.714Z,8.73
2018-03-19T17:39:58.043Z,7.47
2018-03-19T17:42:26.383Z,7.37
2018-03-19T17:44:54.741Z,4.93
2018-03-19T17:47:23.073Z,5.50
2018-03-19T17:49:51.415Z,6.27
2018-03-19T17:52:19.764Z,9.33
2018-03-19T17:54:48.098Z,10.20
2018-03-19T17:57:16.457Z,8.07
2018-03-19T17:59:44.785Z,8.53
2018-03-19T18:02:13.144Z,10.13
2018-03-19T18:04:41.503Z,25.13
2018-03-19T18:07:09.866Z,15.93
2018-03-19T18:09:38.204Z,8.13
2018-03-19T18:12:06.553Z,7.90
2018-03-19T18:14:35.851Z,7.97
2018-03-19T18:17:04.185Z,7.03
2018-03-19T18:19:32.545Z,8.20
2018-03-19T18:22:00.889Z,7.53
2018-03-19T18:24:29.251Z,6.67
2018-03-19T18:26:57.632Z,12.30
2018-03-19T18:29:25.978Z,8.17
2018-03-19T18:31:54.335Z,8.70
2018-03-19T18:34:22.668Z,8.80
2018-03-19T18:36:51.114Z,10.67
2018-03-19T18:39:19.508Z,11.10
2018-03-19T18:41:47.849Z,8.83
2018-03-19T18:44:16.192Z,10.47
2018-03-19T18:46:44.597Z,10.00
2018-03-19T18:49:12.968Z,11.87
2018-03-19T18:51:41.350Z,12.43
2018-03-19T18:54:09.717Z,10.07
2018-03-19T18:56:38.772Z,9.30
2018-03-19T18:59:07.141Z,10.73
2018-03-19T19:01:35.517Z,13.23
2018-03-19T19:04:03.947Z,19.07
2018-03-19T19:06:32.312Z,12.10
2018-03-19T19:09:00.653Z,17.63
2018-03-19T19:11:29.543Z,15.03
2018-03-19T19:13:57.894Z,13.47
2018-03-19T19:16:26.240Z,17.07
2018-03-19T19:18:54.576Z,17.53
2018-03-19T19:21:22.949Z,21.77
2018-03-19T19:23:51.291Z,21.47
2018-03-19T19:26:19.648Z,27.97
2018-03-19T19:28:48.064Z,27.73
2018-03-19T19:31:16.422Z,38.20
2018-03-19T19:33:44.870Z,32.40
2018-03-19T19:36:13.260Z,27.07
2018-03-19T19:38:41.665Z,27.97
2018-03-19T19:41:09.995Z,25.33
2018-03-19T19:43:38.344Z,23.20
2018-03-19T19:46:06.687Z,19.70
2018-03-19T19:48:35.075Z,19.43
2018-03-19T19:51:03.468Z,26.57
2018-03-19T19:53:31.849Z,29.97
2018-03-19T19:56:00.228Z,29.40
2018-03-19T19:58:29.150Z,29.70
2018-03-19T20:00:57.512Z,33.77
2018-03-19T20:03:25.857Z,25.77
2018-03-19T20:05:54.405Z,25.90
2018-03-19T20:08:22.823Z,30.27
2018-03-19T20:10:51.230Z,27.03
2018-03-19T20:13:19.602Z,28.67
2018-03-19T20:15:48.004Z,22.53
2018-03-19T20:18:16.422Z,32.30
2018-03-19T20:20:44.767Z,48.33
2018-03-19T20:23:13.146Z,43.60
2018-03-19T20:25:41.793Z,42.63
2018-03-19T20:28:10.163Z,33.07
2018-03-19T20:30:38.538Z,36.17
2018-03-19T20:33:06.928Z,26.43
2018-03-19T20:35:35.303Z,25.03
2018-03-19T20:38:03.684Z,18.73
2018-03-19T20:40:32.089Z,30.57
2018-03-19T20:43:00.442Z,24.20
2018-03-19T20:45:28.863Z,23.87
2018-03-19T20:47:57.208Z,20.23
2018-03-19T20:50:25.584Z,25.83
2018-03-19T20:52:53.995Z,25.40
2018-03-19T20:55:22.368Z,22.57
2018-03-19T20:57:50.921Z,22.43
2018-03-19T21:00:19.280Z,24.13
2018-03-19T21:02:47.646Z,25.87
2018-03-19T21:05:16.054Z,37.97
2018-03-19T21:07:44.433Z,30.07
2018-03-19T21:10:12.797Z,25.30
2018-03-19T21:12:41.287Z,27.10
2018-03-19T21:15:09.665Z,23.10
2018-03-19T21:17:38.041Z,24.57
2018-03-19T21:20:06.398Z,18.63
2018-03-19T21:22:34.769Z,17.83
2018-03-19T21:25:03.602Z,24.53
2018-03-19T21:27:31.987Z,20.47
2018-03-19T21:30:00.371Z,12.93
2018-03-19T21:32:28.724Z,14.13
2018-03-19T21:34:57.065Z,18.13
2018-03-19T21:37:25.436Z,16.77
2018-03-19T21:39:54.229Z,14.00
2018-03-19T21:42:22.596Z,16.83
2018-03-19T21:44:51.001Z,14.60
2018-03-19T21:47:19.409Z,19.87
2018-03-19T21:49:47.891Z,16.93
2018-03-19T21:52:17.389Z,17.30
2018-03-19T21:54:45.733Z,17.03
2018-03-19T21:57:14.124Z,22.00
2018-03-19T21:59:42.482Z,21.40
2018-03-19T22:02:10.864Z,18.53
2018-03-19T22:04:39.270Z,17.63
2018-03-19T22:07:07.697Z,15.80
2018-03-19T22:09:36.097Z,16.50
2018-03-19T22:12:04.473Z,16.87
2018-03-19T22:14:32.829Z,15.70
2018-03-19T22:17:01.205Z,11.70
2018-03-19T22:19:29.574Z,15.03
2018-03-19T22:21:57.933Z,13.90
2018-03-19T22:24:26.328Z,13.67
2018-03-19T22:26:54.677Z,13.70
2018-03-19T22:29:23.039Z,13.80
2018-03-19T22:31:51.403Z,14.97
2018-03-19T22:34:19.742Z,12.43
2018-03-19T22:36:48.143Z,18.47
2018-03-19T22:39:16.538Z,17.53
2018-03-19T22:41:44.888Z,13.73
2018-03-19T22:44:13.390Z,9.97
2018-03-19T22:46:41.769Z,12.83
2018-03-19T22:49:10.164Z,11.13
2018-03-19T22:51:38.518Z,13.27
2018-03-19T22:54:06.856Z,13.67
2018-03-19T22:56:35.361Z,12.20
2018-03-19T22:59:03.680Z,14.47
2018-03-19T23:01:32.030Z,14.63
2018-03-19T23:04:00.478Z,13.67
2018-03-19T23:06:28.815Z,19.00
2018-03-19T23:08:57.341Z,19.50
2018-03-19T23:11:25.684Z,21.50
2018-03-19T23:13:54.041Z,16.57
2018-03-19T23:16:22.429Z,18.83
2018-03-19T23:18:50.990Z,15.53
2018-03-19T23:21:19.354Z,18.53
2018-03-19T23:23:47.697Z,15.60
2018-03-19T23:26:16.065Z,14.80
2018-03-19T23:28:44.403Z,16.93
2018-03-19T23:31:12.779Z,12.43
2018-03-19T23:33:41.157Z,12.33
2018-03-19T23:36:09.780Z,12.40
2018-03-19T23:38:38.244Z,12.37
2018-03-19T23:41:06.600Z,13.37
2018-03-19T23:43:35.035Z,12.10
2018-03-19T23:46:03.376Z,11.93
2018-03-19T23:48:31.781Z,15.93
2018-03-19T23:51:00.118Z,14.70
2018-03-19T23:53:28.467Z,10.70
2018-03-19T23:55:56.842Z,12.47
2018-03-19T23:58:25.226Z,12.63
